createdAt,value
2018-12-23T00:00:37.189Z,3.15
2018-12-23T00:11:42.223Z,3.15
2018-12-23T00:22:41.723Z,3.15
2018-12-23T00:33:45.148Z,3.15
2018-12-23T00:44:48.284Z,3.14
2018-12-23T00:55:51.089Z,3.14
2018-12-23T01:06:33.558Z,3.13
2018-12-23T01:17:10.997Z,3.13
2018-12-23T01:28:09.823Z,3.12
2018-12-23T01:39:10.096Z,3.12
2018-12-23T01:50:11.364Z,3.12
2018-12-23T02:01:13.966Z,3.11
2018-12-23T02:12:17.644Z,3.11
2018-12-23T02:23:20.720Z,3.11
2018-12-23T02:34:23.071Z,3.10
2018-12-23T02:45:23.781Z,3.10
2018-12-23T02:56:27.930Z,3.10
2018-12-23T03:07:29.761Z,3.10
2018-12-23T03:18:31.679Z,3.10
2018-12-23T03:29:36.466Z,3.10
2018-12-23T03:40:37.583Z,3.09
2018-12-23T03:51:38.724Z,3.09
2018-12-23T04:02:22.049Z,3.08
2018-12-23T04:13:27.266Z,3.08
2018-12-23T04:24:28.105Z,3.08
2018-12-23T04:35:30.957Z,3.08
2018-12-23T04:46:30.857Z,3.08
2018-12-23T04:57:32.610Z,3.08
2018-12-23T05:08:33.591Z,3.07
2018-12-23T05:19:36.077Z,3.07
2018-12-23T05:30:33.441Z,3.07
2018-12-23T05:41:33.253Z,3.06
2018-12-23T05:52:34.983Z,3.06
2018-12-23T06:03:36.067Z,3.06
2018-12-23T06:14:36.398Z,3.06
2018-12-23T06:25:36.679Z,3.05
2018-12-23T06:36:41.822Z,3.05
2018-12-23T06:47:26.110Z,3.05
2018-12-23T06:58:21.794Z,3.05
2018-12-23T07:09:18.734Z,3.06
2018-12-23T07:20:19.289Z,3.06
2018-12-23T07:31:17.376Z,3.07
2018-12-23T07:42:13.128Z,3.09
2018-12-23T07:53:16.007Z,3.10
2018-12-23T08:04:19.078Z,3.12
2018-12-23T08:15:17.400Z,3.13
2018-12-23T08:26:19.538Z,3.15
2018-12-23T08:37:18.876Z,3.17
2018-12-23T08:48:20.516Z,3.19
2018-12-23T08:59:22.549Z,3.21
2018-12-23T09:10:26.540Z,3.22
2018-12-23T09:21:31.592Z,3.25
2018-12-23T09:32:13.426Z,3.26
2018-12-23T09:43:15.731Z,3.29
2018-12-23T09:54:15.859Z,3.30
2018-12-23T10:05:20.018Z,3.33
2018-12-23T10:16:17.746Z,3.33
2018-12-23T10:27:19.311Z,3.34
2018-12-23T10:38:21.706Z,3.36
2018-12-23T10:49:22.262Z,3.37
2018-12-23T11:00:23.035Z,3.46
2018-12-23T11:11:28.299Z,3.40
2018-12-23T11:22:28.559Z,3.39
2018-12-23T11:33:26.630Z,3.38
2018-12-23T11:44:25.140Z,3.39
2018-12-23T11:55:25.097Z,3.38
2018-12-23T12:06:24.666Z,3.39
2018-12-23T12:17:28.827Z,3.38
2018-12-23T12:28:23.086Z,3.43
2018-12-23T12:39:23.641Z,3.39
2018-12-23T12:50:22.576Z,3.38
2018-12-23T13:01:21.522Z,3.39
2018-12-23T13:12:20.030Z,3.40
2018-12-23T13:23:20.477Z,3.39
2018-12-23T13:34:18.255Z,3.40
2018-12-23T13:45:19.792Z,3.43
2018-12-23T13:56:17.135Z,3.42
2018-12-23T14:07:13.568Z,3.41
2018-12-23T14:18:12.739Z,3.40
2018-12-23T14:29:13.323Z,3.39
2018-12-23T14:40:13.816Z,3.39
2018-12-23T14:51:12.395Z,3.37
2018-12-23T15:02:10.772Z,3.36
2018-12-23T15:13:11.983Z,3.36
2018-12-23T15:24:01.422Z,3.34
2018-12-23T15:35:02.450Z,3.34
2018-12-23T15:45:59.781Z,3.33
2018-12-23T15:56:56.698Z,3.33
2018-12-23T16:07:59.967Z,3.33
2018-12-23T16:19:00.922Z,3.32
2018-12-23T16:29:57.734Z,3.32
2018-12-23T16:40:59.663Z,3.31
2018-12-23T16:51:56.982Z,3.31
2018-12-23T17:02:57.129Z,3.31
2018-12-23T17:13:57.842Z,3.30
2018-12-23T17:25:02.013Z,3.30
2018-12-23T17:36:11.565Z,3.28
2018-12-23T17:47:13.646Z,3.30
2018-12-23T17:58:12.720Z,3.29
2018-12-23T18:09:16.664Z,3.29
2018-12-23T18:20:14.735Z,3.29
2018-12-23T18:31:11.114Z,3.29
2018-12-23T18:42:10.181Z,3.28
2018-12-23T18:53:11.996Z,3.28
2018-12-23T19:04:12.647Z,3.28
2018-12-23T19:15:13.174Z,3.28
2018-12-23T19:26:10.438Z,3.27
2018-12-23T19:37:06.617Z,3.26
2018-12-23T19:47:55.809Z,3.26
2018-12-23T19:58:42.648Z,3.26
2018-12-23T20:09:37.975Z,3.26
2018-12-23T20:20:40.036Z,3.25
2018-12-23T20:31:36.073Z,3.25
2018-12-23T20:42:37.089Z,3.25
2018-12-23T20:53:31.604Z,3.25
2018-12-23T21:04:20.722Z,3.25
2018-12-23T21:15:07.566Z,3.24
2018-12-23T21:26:03.021Z,3.23
2018-12-23T21:37:00.031Z,3.23
2018-12-23T21:47:57.367Z,3.23
2018-12-23T21:58:50.111Z,3.22
2018-12-23T22:09:35.931Z,3.22
2018-12-23T22:20:11.550Z,3.21
2018-12-23T22:30:56.583Z,3.20
2018-12-23T22:41:45.304Z,3.20
2018-12-23T22:52:24.155Z,3.19
2018-12-23T23:03:08.716Z,3.18
2018-12-23T23:13:54.783Z,3.18
2018-12-23T23:24:49.308Z,3.18
2018-12-23T23:35:39.289Z,3.17
2018-12-23T23:46:33.287Z,3.17
2018-12-23T23:57:20.426Z,3.16
